sensor_id;sensor_type;location;lat;lon;timestamp;pressure;altitude;pressure_sealevel;temperature;humidity
17785;BME280;9016;53.582;10.062;2022-10-14T00:01:04;101402.75;;;16.09;89.73
17785;BME280;9016;53.582;10.062;2022-10-14T00:03:33;101402.75;;;16.09;89.94
17785;BME280;9016;53.582;10.062;2022-10-14T00:06:03;101392.13;;;16.07;89.57
17785;BME280;9016;53.582;10.062;2022-10-14T00:08:31;101396.41;;;16.10;90.20
17785;BME280;9016;53.582;10.062;2022-10-14T00:11:05;101393.84;;;16.08;89.97
17785;BME280;9016;53.582;10.062;2022-10-14T00:13:33;101401.69;;;16.11;90.25
17785;BME280;9016;53.582;10.062;2022-10-14T00:16:02;101397.22;;;15.99;90.39
17785;BME280;9016;53.582;10.062;2022-10-14T00:18:31;101399.91;;;15.99;90.73
17785;BME280;9016;53.582;10.062;2022-10-14T00:21:00;101396.53;;;15.96;91.27
17785;BME280;9016;53.582;10.062;2022-10-14T00:23:29;101396.22;;;16.00;91.23
17785;BME280;9016;53.582;10.062;2022-10-14T00:25:57;101396.84;;;16.04;90.93
17785;BME280;9016;53.582;10.062;2022-10-14T00:28:26;101397.09;;;16.01;90.98
17785;BME280;9016;53.582;10.062;2022-10-14T00:30:55;101390.34;;;15.95;91.46
17785;BME280;9016;53.582;10.062;2022-10-14T00:33:23;101393.84;;;15.96;91.66
17785;BME280;9016;53.582;10.062;2022-10-14T00:35:56;101390.44;;;15.94;91.06
17785;BME280;9016;53.582;10.062;2022-10-14T00:38:24;101398.94;;;15.88;92.07
17785;BME280;9016;53.582;10.062;2022-10-14T00:40:53;101398.06;;;15.87;91.50
17785;BME280;9016;53.582;10.062;2022-10-14T00:43:27;101405.81;;;15.92;92.38
17785;BME280;9016;53.582;10.062;2022-10-14T00:45:55;101403.03;;;15.93;92.51
17785;BME280;9016;53.582;10.062;2022-10-14T00:48:24;101401.19;;;15.94;91.81
17785;BME280;9016;53.582;10.062;2022-10-14T00:50:54;101399.97;;;15.98;92.25
17785;BME280;9016;53.582;10.062;2022-10-14T00:53:23;101402.59;;;15.99;91.94
17785;BME280;9016;53.582;10.062;2022-10-14T00:55:51;101402.25;;;16.04;91.88
17785;BME280;9016;53.582;10.062;2022-10-14T00:58:19;101398.50;;;15.94;92.57
17785;BME280;9016;53.582;10.062;2022-10-14T01:00:49;101399.56;;;15.91;92.74
17785;BME280;9016;53.582;10.062;2022-10-14T01:03:19;101402.03;;;15.94;92.46
17785;BME280;9016;53.582;10.062;2022-10-14T01:05:52;101396.03;;;15.91;92.27
17785;BME280;9016;53.582;10.062;2022-10-14T01:08:26;101395.16;;;15.90;92.65
17785;BME280;9016;53.582;10.062;2022-10-14T01:11:03;101386.25;;;15.90;93.02
17785;BME280;9016;53.582;10.062;2022-10-14T01:13:36;101380.75;;;15.91;92.61
17785;BME280;9016;53.582;10.062;2022-10-14T01:16:14;101386.38;;;15.88;93.33
17785;BME280;9016;53.582;10.062;2022-10-14T01:18:55;101378.72;;;15.95;92.90
17785;BME280;9016;53.582;10.062;2022-10-14T01:21:28;101381.78;;;16.01;92.93
17785;BME280;9016;53.582;10.062;2022-10-14T01:24:28;101378.78;;;16.06;91.96
17785;BME280;9016;53.582;10.062;2022-10-14T01:27:16;101379.22;;;16.00;91.81
17785;BME280;9016;53.582;10.062;2022-10-14T01:29:59;101375.34;;;16.04;91.89
17785;BME280;9016;53.582;10.062;2022-10-14T01:32:29;101377.53;;;15.99;91.76
17785;BME280;9016;53.582;10.062;2022-10-14T01:35:05;101372.47;;;15.94;92.12
17785;BME280;9016;53.582;10.062;2022-10-14T01:37:37;101372.19;;;15.86;92.77
17785;BME280;9016;53.582;10.062;2022-10-14T01:40:13;101378.75;;;15.82;93.73
17785;BME280;9016;53.582;10.062;2022-10-14T01:42:45;101370.88;;;15.79;93.73
17785;BME280;9016;53.582;10.062;2022-10-14T01:45:18;101381.22;;;15.72;93.96
17785;BME280;9016;53.582;10.062;2022-10-14T01:47:49;101374.03;;;15.73;94.34
17785;BME280;9016;53.582;10.062;2022-10-14T01:50:20;101371.00;;;15.77;94.44
17785;BME280;9016;53.582;10.062;2022-10-14T01:52:53;101371.53;;;15.82;94.07
17785;BME280;9016;53.582;10.062;2022-10-14T01:55:25;101366.06;;;15.84;93.72
17785;BME280;9016;53.582;10.062;2022-10-14T01:57:56;101363.13;;;15.87;93.02
17785;BME280;9016;53.582;10.062;2022-10-14T02:00:25;101360.13;;;15.79;93.22
17785;BME280;9016;53.582;10.062;2022-10-14T02:02:53;101364.66;;;15.78;93.83
17785;BME280;9016;53.582;10.062;2022-10-14T02:05:25;101365.31;;;15.82;92.94
17785;BME280;9016;53.582;10.062;2022-10-14T02:07:57;101369.06;;;15.79;93.70
17785;BME280;9016;53.582;10.062;2022-10-14T02:10:45;101360.03;;;15.80;93.72
17785;BME280;9016;53.582;10.062;2022-10-14T02:13:28;101356.59;;;15.78;93.05
17785;BME280;9016;53.582;10.062;2022-10-14T02:16:08;101356.38;;;15.81;93.77
17785;BME280;9016;53.582;10.062;2022-10-14T02:18:47;101351.88;;;15.82;93.84
17785;BME280;9016;53.582;10.062;2022-10-14T02:21:22;101348.00;;;15.86;93.48
17785;BME280;9016;53.582;10.062;2022-10-14T02:23:55;101344.19;;;15.88;93.14
17785;BME280;9016;53.582;10.062;2022-10-14T02:26:25;101341.94;;;15.95;92.89
17785;BME280;9016;53.582;10.062;2022-10-14T02:28:54;101347.09;;;15.98;92.47
17785;BME280;9016;53.582;10.062;2022-10-14T02:31:28;101348.91;;;15.98;91.87
17785;BME280;9016;53.582;10.062;2022-10-14T02:33:59;101349.91;;;15.97;91.70
17785;BME280;9016;53.582;10.062;2022-10-14T02:36:30;101349.78;;;15.98;92.35
17785;BME280;9016;53.582;10.062;2022-10-14T02:39:00;101357.09;;;15.96;92.24
17785;BME280;9016;53.582;10.062;2022-10-14T02:41:31;101354.91;;;16.01;92.03
17785;BME280;9016;53.582;10.062;2022-10-14T02:44:03;101350.28;;;16.03;91.77
17785;BME280;9016;53.582;10.062;2022-10-14T02:46:33;101353.34;;;15.99;91.49
17785;BME280;9016;53.582;10.062;2022-10-14T02:49:01;101355.91;;;16.00;91.78
17785;BME280;9016;53.582;10.062;2022-10-14T02:51:29;101352.34;;;16.00;91.67
17785;BME280;9016;53.582;10.062;2022-10-14T02:53:57;101358.19;;;15.94;91.89
17785;BME280;9016;53.582;10.062;2022-10-14T02:56:28;101354.19;;;15.99;91.96
17785;BME280;9016;53.582;10.062;2022-10-14T02:58:55;101359.56;;;15.99;91.64
17785;BME280;9016;53.582;10.062;2022-10-14T03:01:23;101353.22;;;16.00;91.92
17785;BME280;9016;53.582;10.062;2022-10-14T03:03:53;101358.59;;;16.00;92.26
17785;BME280;9016;53.582;10.062;2022-10-14T03:06:23;101354.19;;;15.99;92.41
17785;BME280;9016;53.582;10.062;2022-10-14T03:08:51;101344.28;;;16.00;92.07
17785;BME280;9016;53.582;10.062;2022-10-14T03:11:19;101342.78;;;15.96;92.02
17785;BME280;9016;53.582;10.062;2022-10-14T03:13:47;101352.91;;;15.92;92.47
17785;BME280;9016;53.582;10.062;2022-10-14T03:16:15;101350.31;;;15.91;93.31
17785;BME280;9016;53.582;10.062;2022-10-14T03:18:43;101339.56;;;15.91;93.41
17785;BME280;9016;53.582;10.062;2022-10-14T03:21:12;101334.94;;;15.93;93.63
17785;BME280;9016;53.582;10.062;2022-10-14T03:23:40;101338.28;;;15.96;93.63
17785;BME280;9016;53.582;10.062;2022-10-14T03:26:08;101342.16;;;15.92;93.32
17785;BME280;9016;53.582;10.062;2022-10-14T03:28:39;101340.56;;;15.90;93.87
17785;BME280;9016;53.582;10.062;2022-10-14T03:31:07;101344.09;;;15.90;94.04
17785;BME280;9016;53.582;10.062;2022-10-14T03:33:35;101337.88;;;15.90;94.23
17785;BME280;9016;53.582;10.062;2022-10-14T03:36:04;101343.38;;;15.88;94.45
17785;BME280;9016;53.582;10.062;2022-10-14T03:38:33;101335.31;;;15.88;94.74
17785;BME280;9016;53.582;10.062;2022-10-14T03:41:01;101345.47;;;15.96;94.67
17785;BME280;9016;53.582;10.062;2022-10-14T03:43:29;101343.66;;;15.96;94.14
17785;BME280;9016;53.582;10.062;2022-10-14T03:45:57;101333.75;;;15.97;93.67
17785;BME280;9016;53.582;10.062;2022-10-14T03:48:25;101339.78;;;16.00;94.15
17785;BME280;9016;53.582;10.062;2022-10-14T03:50:53;101342.47;;;16.00;93.69
17785;BME280;9016;53.582;10.062;2022-10-14T03:53:21;101341.38;;;16.03;94.32
17785;BME280;9016;53.582;10.062;2022-10-14T03:55:50;101341.16;;;16.06;94.00
17785;BME280;9016;53.582;10.062;2022-10-14T03:58:18;101340.28;;;16.05;93.14
17785;BME280;9016;53.582;10.062;2022-10-14T04:00:46;101337.59;;;16.05;93.27
17785;BME280;9016;53.582;10.062;2022-10-14T04:03:14;101334.16;;;16.03;92.54
17785;BME280;9016;53.582;10.062;2022-10-14T04:05:42;101333.53;;;16.00;93.26
17785;BME280;9016;53.582;10.062;2022-10-14T04:08:10;101335.16;;;16.02;93.45
17785;BME280;9016;53.582;10.062;2022-10-14T04:10:38;101332.47;;;16.02;92.89
17785;BME280;9016;53.582;10.062;2022-10-14T04:13:07;101332.69;;;15.99;93.22
17785;BME280;9016;53.582;10.062;2022-10-14T04:15:36;101338.16;;;15.98;93.63
17785;BME280;9016;53.582;10.062;2022-10-14T04:18:04;101330.09;;;15.98;93.69
17785;BME280;9016;53.582;10.062;2022-10-14T04:20:32;101333.53;;;16.00;93.87
17785;BME280;9016;53.582;10.062;2022-10-14T04:23:00;101329.47;;;15.94;93.71
17785;BME280;9016;53.582;10.062;2022-10-14T04:25:28;101326.88;;;15.93;94.14
17785;BME280;9016;53.582;10.062;2022-10-14T04:27:56;101319.47;;;15.96;94.28
17785;BME280;9016;53.582;10.062;2022-10-14T04:30:25;101324.38;;;16.02;94.21
17785;BME280;9016;53.582;10.062;2022-10-14T04:32:53;101324.16;;;16.05;93.46
17785;BME280;9016;53.582;10.062;2022-10-14T04:35:21;101310.81;;;16.04;92.87
17785;BME280;9016;53.582;10.062;2022-10-14T04:37:49;101312.13;;;15.98;93.54
17785;BME280;9016;53.582;10.062;2022-10-14T04:40:17;101305.25;;;15.94;93.82
17785;BME280;9016;53.582;10.062;2022-10-14T04:42:46;101302.69;;;15.93;93.99
17785;BME280;9016;53.582;10.062;2022-10-14T04:45:14;101308.63;;;15.85;94.32
17785;BME280;9016;53.582;10.062;2022-10-14T04:47:43;101308.13;;;15.80;94.85
17785;BME280;9016;53.582;10.062;2022-10-14T04:50:14;101312.41;;;15.82;95.07
17785;BME280;9016;53.582;10.062;2022-10-14T04:52:42;101310.81;;;15.80;94.64
17785;BME280;9016;53.582;10.062;2022-10-14T04:55:10;101306.50;;;15.77;95.38
17785;BME280;9016;53.582;10.062;2022-10-14T04:57:38;101305.53;;;15.78;95.68
17785;BME280;9016;53.582;10.062;2022-10-14T05:00:11;101304.69;;;15.78;95.72
17785;BME280;9016;53.582;10.062;2022-10-14T05:02:39;101307.38;;;15.78;95.56
17785;BME280;9016;53.582;10.062;2022-10-14T05:05:09;101310.06;;;15.78;95.83
17785;BME280;9016;53.582;10.062;2022-10-14T05:07:37;101305.66;;;15.77;95.74
17785;BME280;9016;53.582;10.062;2022-10-14T05:10:06;101301.25;;;15.76;95.90
17785;BME280;9016;53.582;10.062;2022-10-14T05:12:36;101304.16;;;15.73;95.92
17785;BME280;9016;53.582;10.062;2022-10-14T05:15:16;101298.03;;;15.71;95.88
17785;BME280;9016;53.582;10.062;2022-10-14T05:17:44;101295.78;;;15.65;96.66
17785;BME280;9016;53.582;10.062;2022-10-14T05:20:17;101297.59;;;15.64;96.86
17785;BME280;9016;53.582;10.062;2022-10-14T05:22:46;101293.09;;;15.65;97.40
17785;BME280;9016;53.582;10.062;2022-10-14T05:25:14;101296.66;;;15.65;97.86
17785;BME280;9016;53.582;10.062;2022-10-14T05:27:42;101296.66;;;15.65;97.90
17785;BME280;9016;53.582;10.062;2022-10-14T05:30:11;101290.28;;;15.66;98.05
17785;BME280;9016;53.582;10.062;2022-10-14T05:32:40;101291.16;;;15.67;98.31
17785;BME280;9016;53.582;10.062;2022-10-14T05:35:08;101295.78;;;15.65;98.71
17785;BME280;9016;53.582;10.062;2022-10-14T05:37:37;101296.31;;;15.70;98.49
17785;BME280;9016;53.582;10.062;2022-10-14T05:40:08;101293.97;;;15.65;98.44
17785;BME280;9016;53.582;10.062;2022-10-14T05:42:37;101298.25;;;15.68;98.39
17785;BME280;9016;53.582;10.062;2022-10-14T05:45:05;101297.41;;;15.67;98.82
17785;BME280;9016;53.582;10.062;2022-10-14T05:47:33;101299.84;;;15.70;98.34
17785;BME280;9016;53.582;10.062;2022-10-14T05:50:01;101296.41;;;15.68;98.49
17785;BME280;9016;53.582;10.062;2022-10-14T05:52:33;101293.84;;;15.67;98.77
17785;BME280;9016;53.582;10.062;2022-10-14T05:55:03;101301.59;;;15.71;98.83
17785;BME280;9016;53.582;10.062;2022-10-14T05:57:31;101297.53;;;15.66;98.31
17785;BME280;9016;53.582;10.062;2022-10-14T05:59:59;101300.09;;;15.67;98.38
17785;BME280;9016;53.582;10.062;2022-10-14T06:02:27;101295.78;;;15.65;99.01
17785;BME280;9016;53.582;10.062;2022-10-14T06:04:56;101292.78;;;15.69;98.69
17785;BME280;9016;53.582;10.062;2022-10-14T06:07:24;101300.94;;;15.68;98.10
17785;BME280;9016;53.582;10.062;2022-10-14T06:09:52;101295.78;;;15.65;99.22
17785;BME280;9016;53.582;10.062;2022-10-14T06:12:21;101298.34;;;15.66;99.01
17785;BME280;9016;53.582;10.062;2022-10-14T06:14:49;101291.91;;;15.69;98.43
17785;BME280;9016;53.582;10.062;2022-10-14T06:17:17;101292.88;;;15.68;98.77
17785;BME280;9016;53.582;10.062;2022-10-14T06:19:45;101292.44;;;15.74;98.05
17785;BME280;9016;53.582;10.062;2022-10-14T06:22:13;101292.94;;;15.79;98.01
17785;BME280;9016;53.582;10.062;2022-10-14T06:24:41;101291.47;;;15.75;97.73
17785;BME280;9016;53.582;10.062;2022-10-14T06:27:09;101294.25;;;15.73;97.16
17785;BME280;9016;53.582;10.062;2022-10-14T06:29:41;101289.75;;;15.74;97.25
17785;BME280;9016;53.582;10.062;2022-10-14T06:32:12;101291.56;;;15.73;98.08
17785;BME280;9016;53.582;10.062;2022-10-14T06:34:40;101294.91;;;15.77;97.83
17785;BME280;9016;53.582;10.062;2022-10-14T06:37:08;101284.88;;;15.79;97.24
17785;BME280;9016;53.582;10.062;2022-10-14T06:39:36;101294.56;;;15.81;97.08
17785;BME280;9016;53.582;10.062;2022-10-14T06:42:04;101281.75;;;15.85;96.68
17785;BME280;9016;53.582;10.062;2022-10-14T06:44:39;101286.06;;;15.88;96.39
17785;BME280;9016;53.582;10.062;2022-10-14T06:47:11;101293.25;;;15.87;96.06
17785;BME280;9016;53.582;10.062;2022-10-14T06:49:39;101287.44;;;15.93;95.83
17785;BME280;9016;53.582;10.062;2022-10-14T06:52:07;101288.50;;;15.91;95.94
17785;BME280;9016;53.582;10.062;2022-10-14T06:54:35;101282.94;;;15.81;95.73
17785;BME280;9016;53.582;10.062;2022-10-14T06:57:05;101290.56;;;15.87;95.84
17785;BME280;9016;53.582;10.062;2022-10-14T06:59:34;101277.13;;;15.87;95.15
17785;BME280;9016;53.582;10.062;2022-10-14T07:02:06;101279.88;;;15.98;94.84
17785;BME280;9016;53.582;10.062;2022-10-14T07:04:35;101286.50;;;16.05;94.02
17785;BME280;9016;53.582;10.062;2022-10-14T07:07:04;101279.94;;;16.09;93.64
17785;BME280;9016;53.582;10.062;2022-10-14T07:09:32;101286.94;;;16.12;93.26
17785;BME280;9016;53.582;10.062;2022-10-14T07:12:01;101289.25;;;16.16;92.95
17785;BME280;9016;53.582;10.062;2022-10-14T07:14:28;101282.81;;;16.19;92.60
17785;BME280;9016;53.582;10.062;2022-10-14T07:16:57;101284.50;;;16.20;92.59
17785;BME280;9016;53.582;10.062;2022-10-14T07:19:27;101284.69;;;16.29;92.15
17785;BME280;9016;53.582;10.062;2022-10-14T07:21:55;101293.50;;;16.31;91.83
17785;BME280;9016;53.582;10.062;2022-10-14T07:24:23;101287.88;;;16.34;91.01
17785;BME280;9016;53.582;10.062;2022-10-14T07:26:51;101284.22;;;16.35;90.78
17785;BME280;9016;53.582;10.062;2022-10-14T07:29:19;101288.53;;;16.38;90.87
17785;BME280;9016;53.582;10.062;2022-10-14T07:31:49;101280.09;;;16.42;91.07
17785;BME280;9016;53.582;10.062;2022-10-14T07:34:20;101280.63;;;16.47;90.26
17785;BME280;9016;53.582;10.062;2022-10-14T07:36:52;101289.44;;;16.49;90.39
17785;BME280;9016;53.582;10.062;2022-10-14T07:39:20;101286.41;;;16.54;89.43
17785;BME280;9016;53.582;10.062;2022-10-14T07:41:48;101288.69;;;16.47;89.28
17785;BME280;9016;53.582;10.062;2022-10-14T07:44:16;101293.75;;;16.52;89.74
17785;BME280;9016;53.582;10.062;2022-10-14T07:46:50;101289.03;;;16.43;90.00
17785;BME280;9016;53.582;10.062;2022-10-14T07:49:19;101284.53;;;16.43;89.67
17785;BME280;9016;53.582;10.062;2022-10-14T07:51:47;101293.31;;;16.45;89.70
17785;BME280;9016;53.582;10.062;2022-10-14T07:54:19;101295.81;;;16.48;89.31
17785;BME280;9016;53.582;10.062;2022-10-14T07:56:48;101300.41;;;16.46;89.90
17785;BME280;9016;53.582;10.062;2022-10-14T07:59:17;101294.81;;;16.49;89.15
17785;BME280;9016;53.582;10.062;2022-10-14T08:01:48;101300.00;;;16.52;88.48
17785;BME280;9016;53.582;10.062;2022-10-14T08:04:17;101297.38;;;16.51;87.98
17785;BME280;9016;53.582;10.062;2022-10-14T08:06:51;101302.78;;;16.51;87.69
17785;BME280;9016;53.582;10.062;2022-10-14T08:09:24;101304.75;;;16.49;87.14
17785;BME280;9016;53.582;10.062;2022-10-14T08:11:52;101308.81;;;16.54;87.47
17785;BME280;9016;53.582;10.062;2022-10-14T08:14:19;101299.03;;;16.64;86.47
17785;BME280;9016;53.582;10.062;2022-10-14T08:16:47;101300.84;;;16.88;85.45
17785;BME280;9016;53.582;10.062;2022-10-14T08:19:19;101293.91;;;17.07;83.96
17785;BME280;9016;53.582;10.062;2022-10-14T08:21:47;101299.44;;;17.28;82.29
17785;BME280;9016;53.582;10.062;2022-10-14T08:24:15;101300.41;;;17.38;80.75
17785;BME280;9016;53.582;10.062;2022-10-14T08:26:50;101293.56;;;17.23;80.85
17785;BME280;9016;53.582;10.062;2022-10-14T08:29:19;101296.50;;;17.64;80.63
17785;BME280;9016;53.582;10.062;2022-10-14T08:31:49;101288.47;;;18.07;78.34
17785;BME280;9016;53.582;10.062;2022-10-14T08:34:17;101291.78;;;18.10;76.09
17785;BME280;9016;53.582;10.062;2022-10-14T08:36:46;101290.66;;;18.13;74.77
17785;BME280;9016;53.582;10.062;2022-10-14T08:39:16;101293.59;;;18.10;74.87
17785;BME280;9016;53.582;10.062;2022-10-14T08:42:04;101287.09;;;18.12;73.25
17785;BME280;9016;53.582;10.062;2022-10-14T08:44:39;101285.56;;;18.41;73.24
17785;BME280;9016;53.582;10.062;2022-10-14T08:47:11;101291.13;;;18.60;71.63
17785;BME280;9016;53.582;10.062;2022-10-14T08:49:50;101284.53;;;18.53;69.14
17785;BME280;9016;53.582;10.062;2022-10-14T08:52:22;101279.47;;;18.60;69.31
17785;BME280;9016;53.582;10.062;2022-10-14T08:54:56;101271.16;;;18.72;67.95
17785;BME280;9016;53.582;10.062;2022-10-14T08:57:30;101276.63;;;18.61;68.39
17785;BME280;9016;53.582;10.062;2022-10-14T09:00:02;101279.25;;;18.41;68.62
17785;BME280;9016;53.582;10.062;2022-10-14T09:02:37;101271.97;;;18.21;68.09
17785;BME280;9016;53.582;10.062;2022-10-14T09:05:13;101271.22;;;17.98;69.98
17785;BME280;9016;53.582;10.062;2022-10-14T09:07:42;101266.78;;;17.97;71.13
17785;BME280;9016;53.582;10.062;2022-10-14T09:10:25;101258.09;;;17.94;70.50
17785;BME280;9016;53.582;10.062;2022-10-14T09:13:00;101270.53;;;17.74;71.37
17785;BME280;9016;53.582;10.062;2022-10-14T09:15:33;101255.16;;;17.86;72.21
17785;BME280;9016;53.582;10.062;2022-10-14T09:18:07;101253.22;;;17.88;72.17
17785;BME280;9016;53.582;10.062;2022-10-14T09:20:39;101244.03;;;17.79;72.58
17785;BME280;9016;53.582;10.062;2022-10-14T09:23:13;101243.94;;;17.69;71.71
17785;BME280;9016;53.582;10.062;2022-10-14T09:25:50;101256.09;;;17.64;70.47
17785;BME280;9016;53.582;10.062;2022-10-14T09:28:28;101249.13;;;17.61;71.38
17785;BME280;9016;53.582;10.062;2022-10-14T09:30:58;101254.69;;;17.80;72.27
17785;BME280;9016;53.582;10.062;2022-10-14T09:33:27;101241.94;;;17.94;71.15
17785;BME280;9016;53.582;10.062;2022-10-14T09:35:56;101251.78;;;18.15;70.77
17785;BME280;9016;53.582;10.062;2022-10-14T09:38:29;101251.84;;;17.93;69.19
17785;BME280;9016;53.582;10.062;2022-10-14T09:41:00;101251.84;;;17.93;68.80
17785;BME280;9016;53.582;10.062;2022-10-14T09:43:29;101255.88;;;17.99;67.99
17785;BME280;9016;53.582;10.062;2022-10-14T09:45:59;101251.91;;;18.14;68.22
17785;BME280;9016;53.582;10.062;2022-10-14T09:48:31;101244.94;;;18.11;67.98
17785;BME280;9016;53.582;10.062;2022-10-14T09:51:01;101252.38;;;17.87;67.88
17785;BME280;9016;53.582;10.062;2022-10-14T09:53:33;101248.84;;;17.75;69.43
17785;BME280;9016;53.582;10.062;2022-10-14T09:56:05;101251.78;;;17.72;68.87
17785;BME280;9016;53.582;10.062;2022-10-14T09:58:41;101246.97;;;17.87;68.12
17785;BME280;9016;53.582;10.062;2022-10-14T10:01:14;101247.44;;;17.92;67.95
17785;BME280;9016;53.582;10.062;2022-10-14T10:03:42;101246.31;;;18.06;68.38
17785;BME280;9016;53.582;10.062;2022-10-14T10:06:14;101239.88;;;18.18;68.19
17785;BME280;9016;53.582;10.062;2022-10-14T10:08:55;101242.94;;;18.13;67.03
17785;BME280;9016;53.582;10.062;2022-10-14T10:11:27;101234.75;;;18.15;67.70
17785;BME280;9016;53.582;10.062;2022-10-14T10:14:14;101239.31;;;18.03;68.45
17785;BME280;9016;53.582;10.062;2022-10-14T10:16:42;101236.31;;;18.17;68.46
17785;BME280;9016;53.582;10.062;2022-10-14T10:19:22;101232.97;;;18.25;67.86
17785;BME280;9016;53.582;10.062;2022-10-14T10:21:53;101228.41;;;18.05;68.42
17785;BME280;9016;53.582;10.062;2022-10-14T10:24:22;101222.41;;;18.01;68.76
17785;BME280;9016;53.582;10.062;2022-10-14T10:26:55;101223.75;;;18.07;68.92
17785;BME280;9016;53.582;10.062;2022-10-14T10:29:26;101232.72;;;17.96;69.18
17785;BME280;9016;53.582;10.062;2022-10-14T10:32:10;101228.91;;;17.99;68.40
17785;BME280;9016;53.582;10.062;2022-10-14T10:35:05;101226.16;;;18.10;68.76
17785;BME280;9016;53.582;10.062;2022-10-14T10:37:40;101223.50;;;18.30;67.68
17785;BME280;9016;53.582;10.062;2022-10-14T10:40:29;101223.28;;;18.33;65.95
17785;BME280;9016;53.582;10.062;2022-10-14T10:43:16;101220.44;;;18.35;66.31
17785;BME280;9016;53.582;10.062;2022-10-14T10:45:59;101220.91;;;18.40;66.96
17785;BME280;9016;53.582;10.062;2022-10-14T10:48:33;101208.91;;;18.33;66.69
17785;BME280;9016;53.582;10.062;2022-10-14T10:51:09;101209.06;;;18.31;67.75
17785;BME280;9016;53.582;10.062;2022-10-14T10:54:02;101207.09;;;18.33;66.62
17785;BME280;9016;53.582;10.062;2022-10-14T10:56:42;101201.28;;;18.38;66.71
17785;BME280;9016;53.582;10.062;2022-10-14T10:59:30;101211.41;;;18.25;66.37
17785;BME280;9016;53.582;10.062;2022-10-14T11:05:05;101199.75;;;18.24;66.46
17785;BME280;9016;53.582;10.062;2022-10-14T11:07:41;101205.34;;;18.32;66.25
17785;BME280;9016;53.582;10.062;2022-10-14T11:10:32;101195.63;;;18.20;66.54
17785;BME280;9016;53.582;10.062;2022-10-14T11:13:22;101198.78;;;18.25;66.81
17785;BME280;9016;53.582;10.062;2022-10-14T11:16:01;101194.41;;;18.45;66.08
17785;BME280;9016;53.582;10.062;2022-10-14T11:18:41;101189.28;;;18.62;65.57
17785;BME280;9016;53.582;10.062;2022-10-14T11:21:18;101195.78;;;18.81;64.50
17785;BME280;9016;53.582;10.062;2022-10-14T11:23:53;101200.44;;;18.58;63.69
17785;BME280;9016;53.582;10.062;2022-10-14T11:26:42;101195.34;;;18.55;62.99
17785;BME280;9016;53.582;10.062;2022-10-14T11:29:26;101193.97;;;18.29;64.56
17785;BME280;9016;53.582;10.062;2022-10-14T11:32:03;101196.59;;;18.40;64.58
17785;BME280;9016;53.582;10.062;2022-10-14T11:34:42;101197.25;;;18.32;65.29
17785;BME280;9016;53.582;10.062;2022-10-14T11:37:26;101197.41;;;18.31;64.84
17785;BME280;9016;53.582;10.062;2022-10-14T11:39:57;101187.13;;;18.25;65.92
17785;BME280;9016;53.582;10.062;2022-10-14T11:42:31;101190.28;;;18.09;65.51
17785;BME280;9016;53.582;10.062;2022-10-14T11:45:17;101188.13;;;17.92;65.40
17785;BME280;9016;53.582;10.062;2022-10-14T11:47:50;101194.16;;;17.85;66.35
17785;BME280;9016;53.582;10.062;2022-10-14T11:50:26;101190.28;;;17.66;66.94
17785;BME280;9016;53.582;10.062;2022-10-14T11:52:59;101184.41;;;17.72;66.50
17785;BME280;9016;53.582;10.062;2022-10-14T11:55:31;101188.06;;;17.71;66.33
17785;BME280;9016;53.582;10.062;2022-10-14T11:58:04;101187.59;;;17.66;67.16
17785;BME280;9016;53.582;10.062;2022-10-14T12:00:35;101185.00;;;17.76;67.29
17785;BME280;9016;53.582;10.062;2022-10-14T12:03:25;101183.91;;;17.67;67.53
17785;BME280;9016;53.582;10.062;2022-10-14T12:06:06;101186.25;;;17.72;67.30
17785;BME280;9016;53.582;10.062;2022-10-14T12:08:44;101175.38;;;17.94;67.46
17785;BME280;9016;53.582;10.062;2022-10-14T12:11:24;101176.78;;;18.09;66.56
17785;BME280;9016;53.582;10.062;2022-10-14T12:14:02;101174.09;;;18.09;65.98
17785;BME280;9016;53.582;10.062;2022-10-14T12:16:31;101175.06;;;18.08;66.27
17785;BME280;9016;53.582;10.062;2022-10-14T12:18:59;101169.94;;;18.05;66.10
17785;BME280;9016;53.582;10.062;2022-10-14T12:21:32;101168.63;;;18.00;66.53
17785;BME280;9016;53.582;10.062;2022-10-14T12:24:06;101172.53;;;17.96;66.99
17785;BME280;9016;53.582;10.062;2022-10-14T12:26:49;101169.38;;;17.91;65.94
17785;BME280;9016;53.582;10.062;2022-10-14T12:29:20;101168.28;;;17.82;66.43
17785;BME280;9016;53.582;10.062;2022-10-14T12:32:04;101166.72;;;17.79;66.20
17785;BME280;9016;53.582;10.062;2022-10-14T12:34:35;101170.44;;;17.67;65.99
17785;BME280;9016;53.582;10.062;2022-10-14T12:40:29;101144.81;;;17.73;65.10
17785;BME280;9016;53.582;10.062;2022-10-14T12:43:20;101142.72;;;17.76;64.45
17785;BME280;9016;53.582;10.062;2022-10-14T12:48:49;101138.72;;;17.60;65.52
17785;BME280;9016;53.582;10.062;2022-10-14T12:51:20;101142.38;;;17.70;66.02
17785;BME280;9016;53.582;10.062;2022-10-14T12:53:55;101137.72;;;17.72;65.14
17785;BME280;9016;53.582;10.062;2022-10-14T12:56:34;101134.44;;;17.68;64.66
17785;BME280;9016;53.582;10.062;2022-10-14T12:59:06;101136.00;;;17.71;64.81
17785;BME280;9016;53.582;10.062;2022-10-14T13:01:35;101141.09;;;17.85;63.60
17785;BME280;9016;53.582;10.062;2022-10-14T13:04:05;101141.59;;;17.79;63.32
17785;BME280;9016;53.582;10.062;2022-10-14T13:06:37;101135.31;;;17.90;63.00
17785;BME280;9016;53.582;10.062;2022-10-14T13:09:29;101130.38;;;18.15;61.77
17785;BME280;9016;53.582;10.062;2022-10-14T13:15:46;101132.19;;;18.05;62.17
17785;BME280;9016;53.582;10.062;2022-10-14T13:21:29;101137.31;;;18.08;62.59
17785;BME280;9016;53.582;10.062;2022-10-14T13:24:24;101140.91;;;17.98;61.97
17785;BME280;9016;53.582;10.062;2022-10-14T13:27:11;101132.97;;;17.96;63.02
17785;BME280;9016;53.582;10.062;2022-10-14T13:29:54;101124.25;;;17.72;62.92
17785;BME280;9016;53.582;10.062;2022-10-14T13:32:33;101115.66;;;17.78;64.07